Startpagina
METAR-TAF:

METAR-TAF

Vliegvelden :

Büchel, Duitsland

breedte: 50-10N, lengte: 007-04E, hoogte: 478 m

Actueel weer

Dit bericht is 49 minuten geleden gemaakt, om 02:20 UTC
Wind 9 kt uit het oosten
Temperatuur 10°C
Vochtigheid 53%
Druk 1022 hPa
Zicht 10 km of meer

METAR: ETSB 210220Z AUTO 09009KT 9999 // ////// 10/01 Q1022 ///

Tijdstip: 05:09 (03:09 UTC)

Verwachting

Dit bericht is 16 uur en het 19 minuten geleden gemaakt, om 10:50 UTC
Verwachting geldig van 20 om 10 UTC tot 20 om 17 UTC
Wind 8 kt uit het oosten
Zicht: 1100 m
Verspreide wolken op 30000 ft

TAF: ETSB 201050Z 2010/2017 08008KT 9999 NSW SCT300 CANCEL 1100 BY ETGL

Waarnemingen en weersverwachtingen van meer dan 4000 vliegvelden (METAR en TAF).

De beschikbare stations zijn de gele en rode punten op de kaart.

Ga met uw muis naar het station om de naam te zien.

Klik dan om waarnemingen en weersverwachtingen te zien.

kaart wijzigen: klik op de groene knoppen met een zwart kruis om in te zoomen, op de groene knop met een streepje om uit te zoomen of op de groene pijlen voor aangrenzende kaarten.


METAR-TAF: